createdAt,value
2022-11-29T00:01:26.026Z,2.72
2022-11-29T00:03:53.544Z,2.52
2022-11-29T00:06:22.742Z,2.74
2022-11-29T00:08:50.224Z,2.81
2022-11-29T00:11:39.093Z,2.80
2022-11-29T00:14:07.271Z,2.76
2022-11-29T00:16:34.028Z,2.74
2022-11-29T00:19:00.707Z,2.57
2022-11-29T00:21:27.346Z,2.57
2022-11-29T00:23:53.959Z,2.67
2022-11-29T00:26:20.881Z,2.73
2022-11-29T00:28:47.437Z,2.88
2022-11-29T00:31:31.842Z,2.91
2022-11-29T00:34:00.825Z,2.79
2022-11-29T00:36:28.171Z,2.90
2022-11-29T00:38:54.800Z,2.79
2022-11-29T00:41:21.487Z,2.69
2022-11-29T00:43:48.249Z,2.71
2022-11-29T00:46:14.954Z,2.68
2022-11-29T00:48:41.554Z,2.66
2022-11-29T00:51:08.827Z,2.68
2022-11-29T00:53:35.794Z,2.72
2022-11-29T00:56:02.526Z,2.67
2022-11-29T00:58:29.227Z,2.64
2022-11-29T01:00:56.706Z,2.74
2022-11-29T01:03:23.575Z,2.78
2022-11-29T01:05:50.531Z,2.76
2022-11-29T01:08:17.438Z,2.81
2022-11-29T01:10:44.168Z,2.63
2022-11-29T01:13:11.329Z,2.67
2022-11-29T01:15:38.451Z,2.62
2022-11-29T01:18:05.487Z,2.68
2022-11-29T01:20:32.130Z,2.63
2022-11-29T01:22:58.912Z,2.65
2022-11-29T01:25:25.595Z,2.80
2022-11-29T01:27:52.127Z,2.87
2022-11-29T01:30:18.725Z,2.91
2022-11-29T01:32:45.266Z,2.83
2022-11-29T01:35:11.837Z,2.91
2022-11-29T01:37:38.439Z,2.94
2022-11-29T01:40:05.798Z,2.98
2022-11-29T01:42:32.383Z,3.02
2022-11-29T01:45:03.823Z,2.97
2022-11-29T01:47:30.911Z,2.90
2022-11-29T01:49:57.648Z,2.95
2022-11-29T01:52:27.535Z,2.82
2022-11-29T01:54:58.332Z,2.85
2022-11-29T01:57:25.924Z,2.79
2022-11-29T01:59:56.918Z,2.86
2022-11-29T02:02:35.567Z,2.95
2022-11-29T02:05:03.551Z,3.04
2022-11-29T02:07:30.298Z,3.11
2022-11-29T02:09:56.897Z,3.18
2022-11-29T02:12:52.468Z,3.20
2022-11-29T02:15:46.309Z,2.91
2022-11-29T02:18:19.134Z,2.89
2022-11-29T02:20:45.589Z,2.92
2022-11-29T02:23:23.845Z,3.02
2022-11-29T02:26:21.216Z,3.03
2022-11-29T02:29:07.809Z,2.89
2022-11-29T02:31:44.432Z,2.96
2022-11-29T02:34:10.885Z,3.00
2022-11-29T02:37:14.230Z,3.05
2022-11-29T02:39:54.856Z,3.07
2022-11-29T02:42:28.136Z,2.99
2022-11-29T02:45:13.142Z,2.98
2022-11-29T02:48:21.193Z,3.03
2022-11-29T02:51:12.702Z,3.01
2022-11-29T02:53:51.391Z,3.04
2022-11-29T02:56:29.749Z,3.02
2022-11-29T02:59:24.677Z,2.96
2022-11-29T03:02:02.505Z,2.80
2022-11-29T03:04:50.860Z,2.86
2022-11-29T03:07:49.331Z,2.80
2022-11-29T03:10:24.646Z,2.73
2022-11-29T03:12:53.792Z,2.72
2022-11-29T03:15:38.581Z,2.75
2022-11-29T03:18:20.182Z,2.84
2022-11-29T03:20:49.688Z,2.90
2022-11-29T03:23:24.140Z,2.89
2022-11-29T03:26:07.525Z,2.97
2022-11-29T03:28:43.125Z,2.92
2022-11-29T03:31:35.064Z,2.85
2022-11-29T03:34:31.830Z,2.92
2022-11-29T03:37:06.231Z,2.76
2022-11-29T03:39:52.446Z,2.79
2022-11-29T03:42:25.186Z,2.88
2022-11-29T03:45:07.971Z,2.96
2022-11-29T03:47:48.898Z,3.02
2022-11-29T03:50:21.948Z,2.97
2022-11-29T03:52:55.910Z,2.97
2022-11-29T03:55:31.179Z,2.97
2022-11-29T03:58:39.201Z,2.95
2022-11-29T04:01:18.455Z,2.97
2022-11-29T04:04:03.075Z,2.93
2022-11-29T04:06:51.314Z,2.76
2022-11-29T04:09:55.243Z,2.82
2022-11-29T04:12:22.311Z,2.87
2022-11-29T04:15:00.761Z,2.81
2022-11-29T04:17:38.046Z,2.92
2022-11-29T04:20:29.120Z,3.02
2022-11-29T04:23:19.689Z,3.04
2022-11-29T04:25:49.537Z,3.13
2022-11-29T04:29:06.679Z,3.15
2022-11-29T04:31:33.335Z,3.22
2022-11-29T04:33:59.866Z,3.23
2022-11-29T04:36:44.942Z,3.27
2022-11-29T04:39:37.802Z,3.28
2022-11-29T04:42:13.248Z,3.31
2022-11-29T04:44:57.981Z,3.27
2022-11-29T04:47:55.410Z,3.15
2022-11-29T04:50:34.104Z,3.21
2022-11-29T04:53:19.561Z,3.33
2022-11-29T04:56:21.476Z,3.24
2022-11-29T04:59:03.016Z,3.15
2022-11-29T05:01:58.818Z,3.11
2022-11-29T05:04:30.003Z,3.10
2022-11-29T05:07:02.274Z,3.04
2022-11-29T05:09:46.779Z,3.09
2022-11-29T05:12:29.523Z,3.07
2022-11-29T05:15:07.857Z,3.12
2022-11-29T05:18:01.131Z,3.12
2022-11-29T05:20:33.689Z,3.19
2022-11-29T05:23:02.982Z,3.25
2022-11-29T05:25:47.971Z,3.23
2022-11-29T05:28:23.170Z,3.31
2022-11-29T05:31:20.099Z,3.18
2022-11-29T05:34:11.488Z,3.23
2022-11-29T05:36:50.892Z,3.27
2022-11-29T05:39:23.296Z,3.34
2022-11-29T05:42:08.906Z,3.32
2022-11-29T05:44:51.079Z,3.38
2022-11-29T05:47:40.261Z,3.41
2022-11-29T05:50:26.294Z,3.36
2022-11-29T05:52:59.059Z,3.40
2022-11-29T05:55:53.997Z,3.38
2022-11-29T05:58:30.605Z,3.35
2022-11-29T06:01:07.063Z,3.32
2022-11-29T06:03:41.849Z,3.35
2022-11-29T06:06:19.711Z,3.49
2022-11-29T06:08:53.586Z,3.57
2022-11-29T06:11:26.240Z,3.62
2022-11-29T06:14:25.665Z,3.60
2022-11-29T06:17:48.740Z,3.62
2022-11-29T06:20:39.316Z,3.53
2022-11-29T06:23:14.796Z,3.49
2022-11-29T06:26:03.531Z,3.44
2022-11-29T06:28:48.826Z,3.44
2022-11-29T06:31:29.837Z,3.46
2022-11-29T06:34:10.311Z,3.49
2022-11-29T06:36:47.765Z,3.58
2022-11-29T06:39:14.681Z,3.57
2022-11-29T06:41:41.200Z,3.46
2022-11-29T06:44:08.531Z,3.36
2022-11-29T06:46:45.538Z,3.45
2022-11-29T06:49:27.343Z,3.37
2022-11-29T06:52:27.709Z,3.33
2022-11-29T06:55:39.930Z,3.45
2022-11-29T06:58:46.477Z,3.53
2022-11-29T07:01:28.024Z,3.59
2022-11-29T07:04:02.584Z,3.52
2022-11-29T07:06:30.006Z,3.61
2022-11-29T07:09:01.214Z,3.67
2022-11-29T07:11:28.274Z,3.75
2022-11-29T07:13:55.054Z,3.69
2022-11-29T07:16:29.174Z,3.65
2022-11-29T07:19:10.682Z,3.61
2022-11-29T07:22:24.958Z,3.78
2022-11-29T07:25:03.641Z,3.74
2022-11-29T07:28:02.204Z,3.72
2022-11-29T07:30:46.665Z,3.71
2022-11-29T07:33:42.013Z,3.61
2022-11-29T07:36:15.200Z,3.58
2022-11-29T07:38:57.321Z,3.60
2022-11-29T07:41:32.180Z,3.61
2022-11-29T07:44:05.852Z,3.73
2022-11-29T07:46:32.439Z,3.87
2022-11-29T07:48:58.945Z,3.94
2022-11-29T07:51:25.741Z,4.10
2022-11-29T07:53:52.307Z,4.08
2022-11-29T07:56:18.966Z,4.12
2022-11-29T07:58:45.580Z,4.24
2022-11-29T08:01:12.738Z,4.28
2022-11-29T08:03:41.958Z,4.19
2022-11-29T08:06:08.874Z,4.12
2022-11-29T08:08:39.231Z,4.24
2022-11-29T08:11:12.067Z,4.34
2022-11-29T08:13:38.650Z,4.38
2022-11-29T08:16:05.506Z,4.52
2022-11-29T08:18:32.076Z,4.62
2022-11-29T08:20:58.689Z,4.76
2022-11-29T08:23:25.324Z,4.84
2022-11-29T08:25:59.259Z,4.92
2022-11-29T08:28:25.821Z,4.88
2022-11-29T08:31:00.330Z,4.94
2022-11-29T08:33:26.960Z,4.87
2022-11-29T08:35:53.528Z,4.91
2022-11-29T08:38:20.070Z,5.02
2022-11-29T08:40:46.581Z,5.12
2022-11-29T08:43:13.069Z,5.18
2022-11-29T08:45:39.649Z,5.18
2022-11-29T08:48:06.676Z,5.32
2022-11-29T08:50:33.166Z,5.38
2022-11-29T08:53:17.819Z,5.38
2022-11-29T08:55:46.620Z,5.46
2022-11-29T08:58:15.148Z,5.30
2022-11-29T09:00:44.237Z,5.38
2022-11-29T09:03:29.093Z,5.40
2022-11-29T09:05:56.004Z,5.56
2022-11-29T09:08:22.633Z,5.75
2022-11-29T09:10:49.582Z,5.82
2022-11-29T09:13:17.583Z,5.96
2022-11-29T09:15:44.171Z,5.97
2022-11-29T09:18:11.097Z,5.95
2022-11-29T09:20:37.675Z,6.04
2022-11-29T09:23:04.785Z,6.17
2022-11-29T09:25:31.329Z,6.13
2022-11-29T09:28:01.278Z,6.30
2022-11-29T09:30:30.609Z,6.40
2022-11-29T09:33:02.773Z,6.44
2022-11-29T09:35:30.007Z,6.48
2022-11-29T09:37:56.528Z,6.59
2022-11-29T09:40:39.159Z,6.56
2022-11-29T09:43:37.248Z,6.68
2022-11-29T09:46:28.338Z,6.78
2022-11-29T09:49:31.520Z,6.74
2022-11-29T09:52:16.430Z,6.86
2022-11-29T09:54:55.236Z,6.87
2022-11-29T09:57:23.983Z,6.95
2022-11-29T09:59:57.613Z,7.10
2022-11-29T10:02:40.240Z,7.26
2022-11-29T10:05:15.290Z,7.26
2022-11-29T10:07:49.446Z,7.32
2022-11-29T10:10:26.050Z,7.42
2022-11-29T10:13:00.341Z,7.55
2022-11-29T10:15:30.787Z,7.71
2022-11-29T10:18:21.282Z,7.71
2022-11-29T10:20:51.339Z,7.76
2022-11-29T10:23:31.521Z,7.77
2022-11-29T10:25:59.167Z,7.81
2022-11-29T10:28:34.440Z,7.87
2022-11-29T10:31:19.090Z,8.05
2022-11-29T10:33:46.741Z,8.14
2022-11-29T10:36:39.374Z,8.17
2022-11-29T10:39:47.256Z,8.26
2022-11-29T10:42:37.909Z,8.25
2022-11-29T10:45:11.169Z,8.31
2022-11-29T10:47:37.863Z,8.36
2022-11-29T10:50:04.651Z,8.35
2022-11-29T10:52:31.196Z,8.52
2022-11-29T10:54:59.574Z,8.84
2022-11-29T10:57:26.275Z,9.16
2022-11-29T11:00:00.709Z,9.42
2022-11-29T11:02:27.927Z,9.58
2022-11-29T11:04:54.648Z,9.71
2022-11-29T11:07:29.393Z,9.46
2022-11-29T11:09:58.044Z,9.35
2022-11-29T11:12:28.963Z,9.30
2022-11-29T11:15:31.832Z,9.36
2022-11-29T11:18:04.974Z,9.25
2022-11-29T11:20:38.095Z,9.17
2022-11-29T11:23:08.280Z,9.11
2022-11-29T11:25:39.022Z,9.15
2022-11-29T11:28:36.675Z,9.20
2022-11-29T11:31:08.354Z,9.32
2022-11-29T11:33:41.005Z,9.26
2022-11-29T11:36:19.584Z,9.33
2022-11-29T11:38:51.089Z,9.43
2022-11-29T11:41:23.691Z,9.39
2022-11-29T11:43:58.454Z,9.31
2022-11-29T11:46:50.546Z,9.21
2022-11-29T11:49:36.565Z,9.19
2022-11-29T11:52:06.727Z,9.17
2022-11-29T11:54:33.467Z,9.27
2022-11-29T11:57:00.313Z,9.31
2022-11-29T11:59:28.034Z,9.29
2022-11-29T12:01:54.742Z,9.27
2022-11-29T12:04:35.602Z,9.31
2022-11-29T12:07:17.883Z,9.32
2022-11-29T12:09:56.222Z,9.36
2022-11-29T12:12:41.081Z,9.42
2022-11-29T12:15:19.260Z,9.47
2022-11-29T12:18:10.190Z,9.56
2022-11-29T12:21:05.338Z,9.64
2022-11-29T12:23:58.207Z,9.65
2022-11-29T12:29:29.829Z,9.65
2022-11-29T12:32:10.491Z,9.62
2022-11-29T12:34:43.806Z,9.61
2022-11-29T12:37:32.600Z,9.59
2022-11-29T12:40:44.424Z,9.55
2022-11-29T12:43:53.308Z,9.47
2022-11-29T12:46:29.410Z,9.43
2022-11-29T12:49:17.276Z,9.44
2022-11-29T12:51:55.678Z,9.47
2022-11-29T12:54:35.277Z,9.47
2022-11-29T12:57:14.367Z,9.33
2022-11-29T12:59:43.789Z,9.16
2022-11-29T13:02:40.238Z,9.15
2022-11-29T13:05:24.968Z,8.99
2022-11-29T13:08:22.206Z,8.96
2022-11-29T13:11:15.118Z,8.89
2022-11-29T13:13:41.676Z,8.80
2022-11-29T13:16:38.873Z,8.70
2022-11-29T13:19:18.579Z,8.79
2022-11-29T13:21:51.054Z,8.91
2022-11-29T13:24:28.939Z,8.86
2022-11-29T13:26:56.483Z,8.90
2022-11-29T13:29:23.983Z,8.88
2022-11-29T13:31:51.698Z,8.78
2022-11-29T13:34:31.002Z,8.83
2022-11-29T13:37:12.900Z,8.75
2022-11-29T13:39:48.523Z,8.75
2022-11-29T13:42:38.979Z,8.82
2022-11-29T13:45:27.877Z,8.76
2022-11-29T13:47:58.477Z,8.69
2022-11-29T13:50:39.730Z,8.54
2022-11-29T13:53:14.287Z,8.61
2022-11-29T13:55:46.947Z,8.58
2022-11-29T13:58:17.829Z,8.62
2022-11-29T14:00:44.824Z,8.52
2022-11-29T14:03:29.406Z,8.36
2022-11-29T14:06:01.979Z,8.27
2022-11-29T14:08:55.169Z,8.31
2022-11-29T14:11:26.551Z,8.33
2022-11-29T14:14:31.582Z,8.40
2022-11-29T14:17:02.012Z,8.37
2022-11-29T14:19:34.410Z,8.35
2022-11-29T14:22:07.097Z,8.32
2022-11-29T14:24:36.610Z,8.31
2022-11-29T14:27:05.836Z,8.30
2022-11-29T14:29:47.788Z,8.31
2022-11-29T14:32:44.543Z,8.34
2022-11-29T14:35:20.165Z,8.31
2022-11-29T14:38:12.985Z,8.39
2022-11-29T14:40:42.198Z,8.40
2022-11-29T14:43:38.571Z,8.42
2022-11-29T14:46:10.030Z,8.38
2022-11-29T14:48:38.346Z,8.31
2022-11-29T14:51:19.553Z,8.29
2022-11-29T14:53:48.962Z,8.26
2022-11-29T14:56:39.412Z,8.20
2022-11-29T14:59:51.695Z,8.24
2022-11-29T15:02:35.222Z,8.20
2022-11-29T15:05:22.192Z,8.19
2022-11-29T15:08:06.639Z,8.24
2022-11-29T15:10:39.037Z,8.20
2022-11-29T15:13:10.843Z,8.26
2022-11-29T15:16:05.787Z,8.29
2022-11-29T15:19:06.035Z,8.29
2022-11-29T15:21:57.455Z,8.24
2022-11-29T15:24:28.320Z,8.22
2022-11-29T15:26:57.281Z,8.21
2022-11-29T15:29:25.056Z,8.19
2022-11-29T15:32:00.548Z,8.20
2022-11-29T15:34:30.603Z,8.26
2022-11-29T15:36:57.588Z,8.24
2022-11-29T15:39:35.598Z,8.24
2022-11-29T15:42:03.490Z,8.21
2022-11-29T15:44:32.713Z,8.20
2022-11-29T15:47:25.132Z,8.14
2022-11-29T15:49:53.678Z,8.11
2022-11-29T15:52:31.753Z,8.08
2022-11-29T15:55:05.400Z,8.05
2022-11-29T15:57:38.809Z,8.16
2022-11-29T16:00:08.899Z,8.23
2022-11-29T16:02:40.062Z,8.21
2022-11-29T16:05:14.314Z,8.23
2022-11-29T16:07:41.923Z,8.24
2022-11-29T16:10:15.982Z,8.27
2022-11-29T16:12:55.783Z,8.26
2022-11-29T16:15:37.215Z,8.28
2022-11-29T16:18:05.520Z,8.25
2022-11-29T16:20:32.218Z,8.31
2022-11-29T16:23:08.115Z,8.32
2022-11-29T16:25:48.190Z,8.36
2022-11-29T16:28:14.988Z,8.37
2022-11-29T16:30:44.668Z,8.35
2022-11-29T16:33:21.448Z,8.37
2022-11-29T16:35:48.949Z,8.32
2022-11-29T16:38:22.539Z,8.30
2022-11-29T16:41:20.151Z,8.30
2022-11-29T16:43:53.788Z,8.35
2022-11-29T16:46:20.404Z,8.36
2022-11-29T16:48:48.898Z,8.39
2022-11-29T16:51:23.950Z,8.42
2022-11-29T16:53:51.900Z,8.33
2022-11-29T16:56:24.365Z,8.30
2022-11-29T16:59:20.845Z,8.32
2022-11-29T17:01:49.358Z,8.20
2022-11-29T17:04:23.835Z,8.10
2022-11-29T17:06:52.906Z,8.12
2022-11-29T17:09:31.556Z,8.11
2022-11-29T17:12:02.008Z,8.13
2022-11-29T17:14:29.381Z,8.17
2022-11-29T17:16:55.963Z,8.14
2022-11-29T17:19:23.832Z,8.06
2022-11-29T17:21:52.055Z,8.08
2022-11-29T17:24:22.549Z,8.07
2022-11-29T17:26:49.682Z,8.09
2022-11-29T17:29:17.983Z,8.12
2022-11-29T17:31:46.092Z,8.09
2022-11-29T17:34:13.053Z,8.15
2022-11-29T17:36:40.478Z,8.13
2022-11-29T17:39:07.319Z,8.17
2022-11-29T17:41:34.311Z,8.16
2022-11-29T17:44:00.991Z,8.19
2022-11-29T17:46:35.205Z,8.20
2022-11-29T17:49:04.298Z,8.18
2022-11-29T17:54:18.286Z,8.09
2022-11-29T17:56:44.889Z,8.04
2022-11-29T17:59:11.493Z,8.03
2022-11-29T18:01:38.051Z,7.99
2022-11-29T18:04:06.349Z,7.98
2022-11-29T18:06:38.292Z,8.03
2022-11-29T18:09:06.594Z,8.09
2022-11-29T18:11:44.925Z,8.03
2022-11-29T18:14:16.323Z,8.05
2022-11-29T18:16:45.403Z,8.11
2022-11-29T18:19:19.198Z,8.13
2022-11-29T18:21:45.955Z,8.06
2022-11-29T18:24:12.655Z,8.00
2022-11-29T18:26:39.699Z,8.06
2022-11-29T18:29:07.416Z,8.05
2022-11-29T18:31:39.820Z,8.00
2022-11-29T18:34:09.421Z,8.01
2022-11-29T18:36:39.109Z,8.00
2022-11-29T18:39:09.023Z,8.04
2022-11-29T18:41:36.589Z,8.05
2022-11-29T18:44:05.963Z,8.04
2022-11-29T18:46:33.419Z,8.03
2022-11-29T18:49:03.254Z,7.99
2022-11-29T18:51:31.189Z,8.02
2022-11-29T18:53:58.929Z,7.99
2022-11-29T18:56:28.207Z,8.02
2022-11-29T18:59:00.059Z,7.99
2022-11-29T19:01:29.164Z,7.97
2022-11-29T19:03:58.247Z,8.00
2022-11-29T19:06:27.962Z,8.00
2022-11-29T19:08:54.950Z,8.01
2022-11-29T19:11:23.653Z,7.97
2022-11-29T19:13:59.933Z,7.94
2022-11-29T19:16:29.063Z,8.03
2022-11-29T19:18:57.219Z,8.01
2022-11-29T19:21:25.389Z,7.94
2022-11-29T19:23:56.689Z,7.90
2022-11-29T19:26:26.084Z,7.85
2022-11-29T19:28:53.496Z,7.82
2022-11-29T19:31:20.614Z,7.78
2022-11-29T19:33:47.509Z,7.69
2022-11-29T19:36:16.367Z,7.73
2022-11-29T19:38:48.787Z,7.65
2022-11-29T19:41:39.808Z,7.69
2022-11-29T19:44:07.867Z,7.72
2022-11-29T19:46:37.848Z,7.76
2022-11-29T19:49:06.185Z,7.78
2022-11-29T19:51:33.059Z,7.83
2022-11-29T19:54:01.926Z,7.83
2022-11-29T19:56:29.591Z,7.82
2022-11-29T19:58:56.627Z,7.81
2022-11-29T20:01:27.987Z,7.77
2022-11-29T20:03:58.449Z,7.69
2022-11-29T20:06:29.693Z,7.78
2022-11-29T20:08:57.292Z,7.81
2022-11-29T20:11:25.188Z,7.83
2022-11-29T20:13:57.875Z,7.74
2022-11-29T20:16:25.437Z,7.76
2022-11-29T20:18:52.994Z,7.70
2022-11-29T20:21:22.681Z,7.72
2022-11-29T20:23:49.331Z,7.80
2022-11-29T20:26:20.813Z,7.74
2022-11-29T20:28:47.916Z,7.69
2022-11-29T20:31:21.483Z,7.78
2022-11-29T20:33:49.191Z,7.77
2022-11-29T20:36:34.566Z,7.78
2022-11-29T20:39:06.995Z,7.72
2022-11-29T20:41:45.756Z,7.64
2022-11-29T20:44:19.825Z,7.62
2022-11-29T20:46:46.590Z,7.62
2022-11-29T20:49:15.174Z,7.64
2022-11-29T20:51:58.579Z,7.69
2022-11-29T20:54:25.165Z,7.66
2022-11-29T20:56:51.732Z,7.71
2022-11-29T20:59:18.334Z,7.74
2022-11-29T21:01:45.056Z,7.76
2022-11-29T21:04:11.629Z,7.80
2022-11-29T21:06:39.053Z,7.85
2022-11-29T21:09:06.107Z,7.84
2022-11-29T21:11:32.646Z,7.85
2022-11-29T21:14:03.515Z,7.81
2022-11-29T21:16:31.748Z,7.75
2022-11-29T21:19:01.590Z,7.78
2022-11-29T21:21:44.727Z,7.77
2022-11-29T21:24:38.804Z,7.78
2022-11-29T21:27:05.533Z,7.81
2022-11-29T21:29:32.226Z,7.78
2022-11-29T21:32:00.775Z,7.79
2022-11-29T21:34:27.408Z,7.82
2022-11-29T21:36:59.354Z,7.75
2022-11-29T21:39:35.125Z,7.70
2022-11-29T21:42:02.092Z,7.53
2022-11-29T21:44:28.672Z,7.51
2022-11-29T21:46:55.451Z,7.56
2022-11-29T21:49:22.066Z,7.56
2022-11-29T21:51:48.625Z,7.60
2022-11-29T21:54:15.129Z,7.62
2022-11-29T21:56:41.796Z,7.68
2022-11-29T21:59:08.342Z,7.71
2022-11-29T22:01:34.920Z,7.73
2022-11-29T22:04:01.572Z,7.77
2022-11-29T22:06:29.486Z,7.81
2022-11-29T22:08:56.932Z,7.84
2022-11-29T22:11:35.441Z,7.86
2022-11-29T22:14:14.736Z,7.75
2022-11-29T22:16:58.989Z,7.55
2022-11-29T22:19:33.132Z,7.54
2022-11-29T22:22:01.735Z,7.56
2022-11-29T22:24:31.315Z,7.53
2022-11-29T22:26:58.114Z,7.46
2022-11-29T22:29:25.044Z,7.42
2022-11-29T22:31:53.511Z,7.43
2022-11-29T22:34:21.225Z,7.49
2022-11-29T22:36:48.019Z,7.53
2022-11-29T22:39:15.016Z,7.54
2022-11-29T22:41:41.719Z,7.52
2022-11-29T22:44:08.246Z,7.51
2022-11-29T22:46:37.630Z,7.50
2022-11-29T22:49:04.338Z,7.52
2022-11-29T22:51:33.842Z,7.52
2022-11-29T22:54:03.305Z,7.55
2022-11-29T22:56:32.644Z,7.53
2022-11-29T22:58:59.165Z,7.60
2022-11-29T23:01:28.122Z,7.61
2022-11-29T23:03:59.357Z,7.59
2022-11-29T23:06:28.563Z,7.56
2022-11-29T23:08:57.834Z,7.52
2022-11-29T23:11:29.348Z,7.55
2022-11-29T23:13:56.042Z,7.56
2022-11-29T23:16:25.461Z,7.59
2022-11-29T23:18:52.426Z,7.51
2022-11-29T23:21:24.710Z,7.51
2022-11-29T23:23:56.265Z,7.53
2022-11-29T23:26:37.466Z,7.53
2022-11-29T23:29:05.302Z,7.42
2022-11-29T23:31:32.065Z,7.53
2022-11-29T23:33:58.652Z,7.59
2022-11-29T23:36:25.469Z,7.61
2022-11-29T23:38:53.181Z,7.57
2022-11-29T23:41:19.783Z,7.60
2022-11-29T23:43:46.458Z,7.53
2022-11-29T23:46:16.965Z,7.51
2022-11-29T23:48:43.932Z,7.53
2022-11-29T23:51:13.387Z,7.50
2022-11-29T23:53:40.758Z,7.52
2022-11-29T23:56:09.810Z,7.46
2022-11-29T23:58:36.421Z,7.44
